sensor_id;sensor_type;location;lat;lon;timestamp;pressure;altitude;pressure_sealevel;temperature;humidity
23473;BME280;11909;52.516;13.564;2023-03-18T00:02:19;100516.53;;;8.91;51.70
23473;BME280;11909;52.516;13.564;2023-03-18T00:04:49;100523.63;;;8.86;51.88
23473;BME280;11909;52.516;13.564;2023-03-18T00:07:16;100528.28;;;8.91;50.13
23473;BME280;11909;52.516;13.564;2023-03-18T00:09:44;100522.81;;;9.07;50.99
23473;BME280;11909;52.516;13.564;2023-03-18T00:12:12;100527.16;;;9.13;49.87
23473;BME280;11909;52.516;13.564;2023-03-18T00:14:40;100523.91;;;9.11;50.79
23473;BME280;11909;52.516;13.564;2023-03-18T00:17:08;100529.66;;;9.04;49.99
23473;BME280;11909;52.516;13.564;2023-03-18T00:19:36;100529.91;;;8.97;50.01
23473;BME280;11909;52.516;13.564;2023-03-18T00:22:05;100534.03;;;9.00;48.94
23473;BME280;11909;52.516;13.564;2023-03-18T00:24:33;100525.81;;;9.00;49.26
23473;BME280;11909;52.516;13.564;2023-03-18T00:27:01;100530.47;;;8.89;49.73
23473;BME280;11909;52.516;13.564;2023-03-18T00:29:29;100522.81;;;8.91;49.18
23473;BME280;11909;52.516;13.564;2023-03-18T00:31:57;100517.91;;;8.83;50.01
23473;BME280;11909;52.516;13.564;2023-03-18T00:34:24;100517.09;;;8.72;51.73
23473;BME280;11909;52.516;13.564;2023-03-18T00:36:53;100519.28;;;8.70;50.35
23473;BME280;11909;52.516;13.564;2023-03-18T00:39:24;100516.50;;;8.65;50.10
23473;BME280;11909;52.516;13.564;2023-03-18T00:41:54;100506.97;;;8.57;50.58
23473;BME280;11909;52.516;13.564;2023-03-18T00:44:23;100508.03;;;8.51;51.25
23473;BME280;11909;52.516;13.564;2023-03-18T00:46:51;100505.84;;;8.53;52.17
23473;BME280;11909;52.516;13.564;2023-03-18T00:49:19;100514.84;;;8.48;50.73
23473;BME280;11909;52.516;13.564;2023-03-18T00:51:47;100513.78;;;8.59;50.05
23473;BME280;11909;52.516;13.564;2023-03-18T00:54:15;100519.00;;;8.61;49.57
23473;BME280;11909;52.516;13.564;2023-03-18T00:56:46;100507.78;;;8.52;49.81
23473;BME280;11909;52.516;13.564;2023-03-18T00:59:15;100507.72;;;8.42;50.89
23473;BME280;11909;52.516;13.564;2023-03-18T01:01:43;100504.16;;;8.36;50.53
23473;BME280;11909;52.516;13.564;2023-03-18T01:04:12;100517.31;;;8.39;49.83
23473;BME280;11909;52.516;13.564;2023-03-18T01:06:39;100515.09;;;8.36;49.75
23473;BME280;11909;52.516;13.564;2023-03-18T01:09:07;100514.28;;;8.30;50.00
23473;BME280;11909;52.516;13.564;2023-03-18T01:11:37;100506.06;;;8.25;49.87
23473;BME280;11909;52.516;13.564;2023-03-18T01:14:06;100510.44;;;8.26;51.71
23473;BME280;11909;52.516;13.564;2023-03-18T01:16:34;100508.81;;;8.36;50.38
23473;BME280;11909;52.516;13.564;2023-03-18T01:19:02;100510.16;;;8.28;50.03
23473;BME280;11909;52.516;13.564;2023-03-18T01:21:30;100506.88;;;8.15;51.21
23473;BME280;11909;52.516;13.564;2023-03-18T01:23:58;100507.13;;;8.14;51.17
23473;BME280;11909;52.516;13.564;2023-03-18T01:26:26;100505.22;;;8.14;50.91
23473;BME280;11909;52.516;13.564;2023-03-18T01:28:54;100497.56;;;8.11;51.09
23473;BME280;11909;52.516;13.564;2023-03-18T01:31:23;100496.19;;;8.14;51.21
23473;BME280;11909;52.516;13.564;2023-03-18T01:33:51;100497.81;;;8.04;50.65
23473;BME280;11909;52.516;13.564;2023-03-18T01:36:20;100505.47;;;8.02;51.30
23473;BME280;11909;52.516;13.564;2023-03-18T01:38:48;100496.72;;;8.00;50.73
23473;BME280;11909;52.516;13.564;2023-03-18T01:41:15;100493.44;;;8.03;51.66
23473;BME280;11909;52.516;13.564;2023-03-18T01:43:44;100498.91;;;8.03;50.95
23473;BME280;11909;52.516;13.564;2023-03-18T01:46:34;100494.25;;;8.04;52.91
23473;BME280;11909;52.516;13.564;2023-03-18T01:49:05;100493.44;;;8.09;50.52
23473;BME280;11909;52.516;13.564;2023-03-18T01:51:34;100498.91;;;8.09;50.72
23473;BME280;11909;52.516;13.564;2023-03-18T01:54:04;100495.34;;;8.03;52.05
23473;BME280;11909;52.516;13.564;2023-03-18T01:56:34;100480.03;;;8.02;51.42
23473;BME280;11909;52.516;13.564;2023-03-18T01:59:03;100495.09;;;8.04;50.58
23473;BME280;11909;52.516;13.564;2023-03-18T02:01:39;100483.06;;;8.00;50.67
23473;BME280;11909;52.516;13.564;2023-03-18T02:04:09;100490.41;;;8.00;51.30
23473;BME280;11909;52.516;13.564;2023-03-18T02:06:37;100487.13;;;7.98;51.12
23473;BME280;11909;52.516;13.564;2023-03-18T02:09:06;100488.78;;;7.99;50.66
23473;BME280;11909;52.516;13.564;2023-03-18T02:11:36;100487.44;;;7.96;51.27
23473;BME280;11909;52.516;13.564;2023-03-18T02:14:06;100498.06;;;8.03;50.38
23473;BME280;11909;52.516;13.564;2023-03-18T02:16:42;100492.59;;;8.03;51.13
23473;BME280;11909;52.516;13.564;2023-03-18T02:19:21;100496.69;;;7.95;50.18
23473;BME280;11909;52.516;13.564;2023-03-18T02:21:59;100489.63;;;8.04;49.84
23473;BME280;11909;52.516;13.564;2023-03-18T02:24:36;100490.41;;;7.95;50.14
23473;BME280;11909;52.516;13.564;2023-03-18T02:27:15;100496.97;;;8.04;50.07
23473;BME280;11909;52.516;13.564;2023-03-18T02:29:44;100484.97;;;8.05;49.98
23473;BME280;11909;52.516;13.564;2023-03-18T02:32:14;100496.44;;;8.07;49.39
23473;BME280;11909;52.516;13.564;2023-03-18T02:34:43;100494.00;;;8.06;49.89
23473;BME280;11909;52.516;13.564;2023-03-18T02:37:11;100495.34;;;7.98;50.08
23473;BME280;11909;52.516;13.564;2023-03-18T02:39:39;100495.31;;;7.93;50.07
23473;BME280;11909;52.516;13.564;2023-03-18T02:42:09;100492.34;;;7.99;49.88
23473;BME280;11909;52.516;13.564;2023-03-18T02:44:42;100490.13;;;7.91;50.08
23473;BME280;11909;52.516;13.564;2023-03-18T02:47:13;100495.88;;;7.95;50.10
23473;BME280;11909;52.516;13.564;2023-03-18T02:49:45;100488.47;;;7.90;50.04
23473;BME280;11909;52.516;13.564;2023-03-18T02:52:12;100477.53;;;7.90;50.95
23473;BME280;11909;52.516;13.564;2023-03-18T02:54:40;100477.28;;;7.92;50.51
23473;BME280;11909;52.516;13.564;2023-03-18T02:57:08;100480.53;;;7.83;50.86
23473;BME280;11909;52.516;13.564;2023-03-18T02:59:36;100484.34;;;7.82;51.03
23473;BME280;11909;52.516;13.564;2023-03-18T03:02:05;100483.25;;;7.83;50.13
23473;BME280;11909;52.516;13.564;2023-03-18T03:04:33;100480.81;;;7.92;49.92
23473;BME280;11909;52.516;13.564;2023-03-18T03:07:01;100477.00;;;7.88;49.82
23473;BME280;11909;52.516;13.564;2023-03-18T03:09:28;100471.78;;;7.81;50.74
23473;BME280;11909;52.516;13.564;2023-03-18T03:11:56;100478.66;;;7.94;50.10
23473;BME280;11909;52.516;13.564;2023-03-18T03:14:24;100471.81;;;7.92;50.04
23473;BME280;11909;52.516;13.564;2023-03-18T03:16:51;100478.38;;;7.85;50.35
23473;BME280;11909;52.516;13.564;2023-03-18T03:19:21;100476.44;;;7.81;50.70
23473;BME280;11909;52.516;13.564;2023-03-18T03:21:49;100485.72;;;7.80;50.27
23473;BME280;11909;52.516;13.564;2023-03-18T03:24:16;100481.91;;;7.86;50.35
23473;BME280;11909;52.516;13.564;2023-03-18T03:26:44;100491.19;;;7.85;49.83
23473;BME280;11909;52.516;13.564;2023-03-18T03:29:12;100479.41;;;7.74;50.74
23473;BME280;11909;52.516;13.564;2023-03-18T03:31:39;100493.38;;;7.78;50.32
23473;BME280;11909;52.516;13.564;2023-03-18T03:34:07;100493.88;;;7.69;50.53
23473;BME280;11909;52.516;13.564;2023-03-18T03:36:37;100490.34;;;7.69;51.34
23473;BME280;11909;52.516;13.564;2023-03-18T03:39:05;100496.38;;;7.81;50.24
23473;BME280;11909;52.516;13.564;2023-03-18T03:41:32;100499.09;;;7.76;51.54
23473;BME280;11909;52.516;13.564;2023-03-18T03:44:01;100502.91;;;7.80;50.89
23473;BME280;11909;52.516;13.564;2023-03-18T03:46:28;100504.59;;;7.86;50.77
23473;BME280;11909;52.516;13.564;2023-03-18T03:48:56;100497.47;;;7.80;50.83
23473;BME280;11909;52.516;13.564;2023-03-18T03:51:24;100499.38;;;7.74;50.87
23473;BME280;11909;52.516;13.564;2023-03-18T03:53:53;100492.59;;;7.93;50.43
23473;BME280;11909;52.516;13.564;2023-03-18T03:56:21;100479.16;;;7.75;50.85
23473;BME280;11909;52.516;13.564;2023-03-18T03:58:48;100483.75;;;7.65;50.89
23473;BME280;11909;52.516;13.564;2023-03-18T04:01:16;100488.13;;;7.66;51.25
23473;BME280;11909;52.516;13.564;2023-03-18T04:03:44;100482.13;;;7.64;51.46
23473;BME280;11909;52.516;13.564;2023-03-18T04:06:12;100485.69;;;7.69;51.72
23473;BME280;11909;52.516;13.564;2023-03-18T04:08:40;100484.84;;;7.64;51.48
23473;BME280;11909;52.516;13.564;2023-03-18T04:11:09;100488.94;;;7.66;50.77
23473;BME280;11909;52.516;13.564;2023-03-18T04:13:38;100495.78;;;7.69;51.22
23473;BME280;11909;52.516;13.564;2023-03-18T04:16:06;100493.84;;;7.64;50.84
23473;BME280;11909;52.516;13.564;2023-03-18T04:18:35;100497.13;;;7.66;51.22
23473;BME280;11909;52.516;13.564;2023-03-18T04:21:03;100503.75;;;7.75;50.81
23473;BME280;11909;52.516;13.564;2023-03-18T04:23:31;100503.94;;;7.58;51.63
23473;BME280;11909;52.516;13.564;2023-03-18T04:25:59;100503.69;;;7.60;51.11
23473;BME280;11909;52.516;13.564;2023-03-18T04:28:28;100509.94;;;7.60;51.40
23473;BME280;11909;52.516;13.564;2023-03-18T04:30:56;100508.00;;;7.51;51.54
23473;BME280;11909;52.516;13.564;2023-03-18T04:33:23;100515.91;;;7.47;51.61
23473;BME280;11909;52.516;13.564;2023-03-18T04:35:51;100518.09;;;7.45;51.68
23473;BME280;11909;52.516;13.564;2023-03-18T04:38:19;100515.34;;;7.40;52.21
23473;BME280;11909;52.516;13.564;2023-03-18T04:40:47;100519.16;;;7.39;52.14
23473;BME280;11909;52.516;13.564;2023-03-18T04:43:14;100513.91;;;7.32;52.26
23473;BME280;11909;52.516;13.564;2023-03-18T04:45:43;100508.72;;;7.30;52.26
23473;BME280;11909;52.516;13.564;2023-03-18T04:48:11;100514.19;;;7.36;52.29
23473;BME280;11909;52.516;13.564;2023-03-18T04:50:39;100522.91;;;7.32;52.63
23473;BME280;11909;52.516;13.564;2023-03-18T04:53:06;100525.63;;;7.32;52.45
23473;BME280;11909;52.516;13.564;2023-03-18T04:55:34;100519.41;;;7.37;52.34
23473;BME280;11909;52.516;13.564;2023-03-18T04:58:02;100529.47;;;7.31;52.74
23473;BME280;11909;52.516;13.564;2023-03-18T05:00:30;100519.06;;;7.28;53.40
23473;BME280;11909;52.516;13.564;2023-03-18T05:02:59;100519.63;;;7.30;53.80
23473;BME280;11909;52.516;13.564;2023-03-18T05:05:28;100522.91;;;7.32;53.79
23473;BME280;11909;52.516;13.564;2023-03-18T05:07:56;100517.72;;;7.31;54.05
23473;BME280;11909;52.516;13.564;2023-03-18T05:10:24;100518.50;;;7.26;54.52
23473;BME280;11909;52.516;13.564;2023-03-18T05:12:51;100521.22;;;7.21;54.66
23473;BME280;11909;52.516;13.564;2023-03-18T05:15:19;100513.28;;;7.20;54.57
23473;BME280;11909;52.516;13.564;2023-03-18T05:17:47;100522.00;;;7.16;54.96
23473;BME280;11909;52.516;13.564;2023-03-18T05:20:17;100523.09;;;7.15;53.08
23473;BME280;11909;52.516;13.564;2023-03-18T05:22:45;100525.59;;;7.22;53.92
23473;BME280;11909;52.516;13.564;2023-03-18T05:25:13;100521.44;;;7.14;54.06
23473;BME280;11909;52.516;13.564;2023-03-18T05:27:41;100523.91;;;7.16;53.13
23473;BME280;11909;52.516;13.564;2023-03-18T05:30:09;100528.25;;;7.12;53.59
23473;BME280;11909;52.516;13.564;2023-03-18T05:32:37;100529.59;;;7.09;54.45
23473;BME280;11909;52.516;13.564;2023-03-18T05:35:06;100523.53;;;7.02;54.33
23473;BME280;11909;52.516;13.564;2023-03-18T05:37:36;100522.16;;;6.99;55.22
23473;BME280;11909;52.516;13.564;2023-03-18T05:40:05;100519.97;;;6.96;55.73
23473;BME280;11909;52.516;13.564;2023-03-18T05:42:35;100516.41;;;6.96;56.24
23473;BME280;11909;52.516;13.564;2023-03-18T05:45:20;100524.56;;;6.91;54.92
23473;BME280;11909;52.516;13.564;2023-03-18T05:47:48;100523.72;;;6.90;54.54
23473;BME280;11909;52.516;13.564;2023-03-18T05:50:17;100519.41;;;6.94;54.56
23473;BME280;11909;52.516;13.564;2023-03-18T05:52:46;100526.72;;;6.88;54.08
23473;BME280;11909;52.516;13.564;2023-03-18T05:55:14;100530.81;;;6.91;54.82
23473;BME280;11909;52.516;13.564;2023-03-18T05:57:42;100530.56;;;6.93;55.22
23473;BME280;11909;52.516;13.564;2023-03-18T06:00:11;100543.78;;;7.06;53.52
23473;BME280;11909;52.516;13.564;2023-03-18T06:02:39;100539.63;;;6.98;53.58
23473;BME280;11909;52.516;13.564;2023-03-18T06:05:07;100540.97;;;6.96;54.31
23473;BME280;11909;52.516;13.564;2023-03-18T06:07:35;100535.25;;;6.97;54.75
23473;BME280;11909;52.516;13.564;2023-03-18T06:10:06;100528.19;;;7.01;55.31
23473;BME280;11909;52.516;13.564;2023-03-18T06:12:34;100528.19;;;7.01;56.08
23473;BME280;11909;52.516;13.564;2023-03-18T06:15:02;100530.88;;;6.96;55.59
23473;BME280;11909;52.516;13.564;2023-03-18T06:17:30;100539.31;;;6.95;54.75
23473;BME280;11909;52.516;13.564;2023-03-18T06:19:57;100538.22;;;6.96;54.08
23473;BME280;11909;52.516;13.564;2023-03-18T06:22:25;100531.47;;;7.03;54.62
23473;BME280;11909;52.516;13.564;2023-03-18T06:24:53;100531.22;;;7.05;53.99
23473;BME280;11909;52.516;13.564;2023-03-18T06:27:23;100535.94;;;7.20;53.50
23473;BME280;11909;52.516;13.564;2023-03-18T06:29:51;100534.78;;;7.11;55.10
23473;BME280;11909;52.516;13.564;2023-03-18T06:32:19;100544.56;;;7.01;53.72
23473;BME280;11909;52.516;13.564;2023-03-18T06:34:47;100551.34;;;6.99;54.25
23473;BME280;11909;52.516;13.564;2023-03-18T06:37:15;100550.81;;;7.02;54.53
23473;BME280;11909;52.516;13.564;2023-03-18T06:39:43;100553.31;;;7.09;54.22
23473;BME280;11909;52.516;13.564;2023-03-18T06:42:11;100560.72;;;7.08;53.62
23473;BME280;11909;52.516;13.564;2023-03-18T06:44:40;100555.50;;;7.07;54.07
23473;BME280;11909;52.516;13.564;2023-03-18T06:47:16;100560.41;;;7.05;54.13
23473;BME280;11909;52.516;13.564;2023-03-18T06:49:44;100563.34;;;6.98;54.11
23473;BME280;11909;52.516;13.564;2023-03-18T06:52:12;100566.94;;;7.03;54.35
23473;BME280;11909;52.516;13.564;2023-03-18T06:54:40;100563.13;;;7.05;54.87
23473;BME280;11909;52.516;13.564;2023-03-18T06:57:08;100559.59;;;7.04;54.83
23473;BME280;11909;52.516;13.564;2023-03-18T06:59:35;100557.97;;;7.08;55.01
23473;BME280;11909;52.516;13.564;2023-03-18T07:02:05;100563.16;;;7.10;55.39
23473;BME280;11909;52.516;13.564;2023-03-18T07:04:34;100572.75;;;7.12;54.79
23473;BME280;11909;52.516;13.564;2023-03-18T07:07:01;100572.28;;;7.26;54.35
23473;BME280;11909;52.516;13.564;2023-03-18T07:09:30;100573.94;;;7.27;54.23
23473;BME280;11909;52.516;13.564;2023-03-18T07:11:59;100581.00;;;7.23;54.24
23473;BME280;11909;52.516;13.564;2023-03-18T07:14:27;100579.34;;;7.22;54.60
23473;BME280;11909;52.516;13.564;2023-03-18T07:16:55;100576.41;;;7.28;55.22
23473;BME280;11909;52.516;13.564;2023-03-18T07:19:24;100594.72;;;7.33;54.08
23473;BME280;11909;52.516;13.564;2023-03-18T07:21:51;100592.56;;;7.35;54.46
23473;BME280;11909;52.516;13.564;2023-03-18T07:24:19;100598.63;;;7.47;53.85
23473;BME280;11909;52.516;13.564;2023-03-18T07:26:48;100603.50;;;7.40;54.15
23473;BME280;11909;52.516;13.564;2023-03-18T07:29:17;100598.91;;;7.46;54.45
23473;BME280;11909;52.516;13.564;2023-03-18T07:31:45;100591.81;;;7.50;54.40
23473;BME280;11909;52.516;13.564;2023-03-18T07:34:14;100599.78;;;7.57;54.09
23473;BME280;11909;52.516;13.564;2023-03-18T07:36:44;100591.84;;;7.55;54.11
23473;BME280;11909;52.516;13.564;2023-03-18T07:39:12;100583.44;;;7.62;54.57
23473;BME280;11909;52.516;13.564;2023-03-18T07:41:40;100588.16;;;7.77;53.56
23473;BME280;11909;52.516;13.564;2023-03-18T07:44:08;100608.13;;;7.78;53.82
23473;BME280;11909;52.516;13.564;2023-03-18T07:46:35;100600.78;;;7.88;53.86
23473;BME280;11909;52.516;13.564;2023-03-18T07:49:03;100605.16;;;7.84;53.93
23473;BME280;11909;52.516;13.564;2023-03-18T07:51:31;100610.91;;;7.93;54.37
23473;BME280;11909;52.516;13.564;2023-03-18T07:54:00;100612.28;;;7.96;54.26
23473;BME280;11909;52.516;13.564;2023-03-18T07:56:29;100611.53;;;8.06;53.93
23473;BME280;11909;52.516;13.564;2023-03-18T07:58:57;100613.47;;;8.10;53.98
23473;BME280;11909;52.516;13.564;2023-03-18T08:01:25;100614.56;;;8.09;54.13
23473;BME280;11909;52.516;13.564;2023-03-18T08:03:53;100608.31;;;8.19;53.95
23473;BME280;11909;52.516;13.564;2023-03-18T08:06:21;100620.59;;;8.27;53.93
23473;BME280;11909;52.516;13.564;2023-03-18T08:08:49;100621.50;;;8.43;53.79
23473;BME280;11909;52.516;13.564;2023-03-18T08:11:18;100625.88;;;8.49;53.38
23473;BME280;11909;52.516;13.564;2023-03-18T08:13:46;100634.69;;;8.61;53.24
23473;BME280;11909;52.516;13.564;2023-03-18T08:16:13;100636.38;;;8.68;53.67
23473;BME280;11909;52.516;13.564;2023-03-18T08:18:41;100632.25;;;8.55;53.59
23473;BME280;11909;52.516;13.564;2023-03-18T08:21:09;100623.19;;;8.59;53.96
23473;BME280;11909;52.516;13.564;2023-03-18T08:23:37;100633.88;;;8.66;53.81
23473;BME280;11909;52.516;13.564;2023-03-18T08:26:05;100632.28;;;8.86;53.36
23473;BME280;11909;52.516;13.564;2023-03-18T08:28:34;100624.63;;;8.83;53.69
23473;BME280;11909;52.516;13.564;2023-03-18T08:31:02;100625.16;;;8.95;53.88
23473;BME280;11909;52.516;13.564;2023-03-18T08:33:31;100629.00;;;8.99;53.75
23473;BME280;11909;52.516;13.564;2023-03-18T08:35:58;100632.03;;;9.03;54.03
23473;BME280;11909;52.516;13.564;2023-03-18T08:38:26;100639.41;;;9.13;53.80
23473;BME280;11909;52.516;13.564;2023-03-18T08:40:54;100639.16;;;9.35;53.72
23473;BME280;11909;52.516;13.564;2023-03-18T08:43:23;100649.56;;;9.59;52.91
23473;BME280;11909;52.516;13.564;2023-03-18T08:45:53;100644.56;;;9.71;53.20
23473;BME280;11909;52.516;13.564;2023-03-18T08:48:21;100648.13;;;9.82;52.94
23473;BME280;11909;52.516;13.564;2023-03-18T08:50:50;100640.44;;;9.95;53.34
23473;BME280;11909;52.516;13.564;2023-03-18T08:53:18;100639.28;;;10.06;52.70
23473;BME280;11909;52.516;13.564;2023-03-18T08:55:46;100640.28;;;10.31;52.24
23473;BME280;11909;52.516;13.564;2023-03-18T08:58:14;100637.28;;;10.27;52.89
23473;BME280;11909;52.516;13.564;2023-03-18T09:00:42;100631.78;;;10.32;53.15
23473;BME280;11909;52.516;13.564;2023-03-18T09:03:11;100647.03;;;10.59;51.91
23473;BME280;11909;52.516;13.564;2023-03-18T09:05:41;100641.84;;;10.53;52.12
23473;BME280;11909;52.516;13.564;2023-03-18T09:08:09;100635.25;;;10.54;52.45
23473;BME280;11909;52.516;13.564;2023-03-18T09:10:36;100630.38;;;10.45;52.86
23473;BME280;11909;52.516;13.564;2023-03-18T09:13:04;100633.09;;;10.51;53.43
23473;BME280;11909;52.516;13.564;2023-03-18T09:15:33;100630.31;;;10.61;53.07
23473;BME280;11909;52.516;13.564;2023-03-18T09:18:01;100646.13;;;10.74;52.75
23473;BME280;11909;52.516;13.564;2023-03-18T09:20:39;100657.09;;;10.74;52.50
23473;BME280;11909;52.516;13.564;2023-03-18T09:23:07;100660.34;;;10.82;52.49
23473;BME280;11909;52.516;13.564;2023-03-18T09:25:35;100657.66;;;10.71;52.68
23473;BME280;11909;52.516;13.564;2023-03-18T09:28:03;100646.06;;;10.85;52.97
23473;BME280;11909;52.516;13.564;2023-03-18T09:30:31;100647.84;;;11.05;52.37
23473;BME280;11909;52.516;13.564;2023-03-18T09:32:59;100655.13;;;11.20;51.98
23473;BME280;11909;52.516;13.564;2023-03-18T09:35:27;100651.75;;;11.33;51.67
23473;BME280;11909;52.516;13.564;2023-03-18T09:37:57;100656.09;;;11.40;51.39
23473;BME280;11909;52.516;13.564;2023-03-18T09:40:26;100659.59;;;11.45;51.46
23473;BME280;11909;52.516;13.564;2023-03-18T09:43:11;100663.56;;;11.64;51.18
23473;BME280;11909;52.516;13.564;2023-03-18T09:45:49;100667.09;;;11.64;51.35
23473;BME280;11909;52.516;13.564;2023-03-18T09:48:49;100666.16;;;11.79;51.18
23473;BME280;11909;52.516;13.564;2023-03-18T09:51:26;100672.75;;;12.08;50.88
23473;BME280;11909;52.516;13.564;2023-03-18T09:54:01;100674.31;;;12.38;49.79
23473;BME280;11909;52.516;13.564;2023-03-18T09:56:33;100676.47;;;12.41;49.66
23473;BME280;11909;52.516;13.564;2023-03-18T09:59:05;100668.91;;;12.52;49.67
23473;BME280;11909;52.516;13.564;2023-03-18T10:01:39;100670.34;;;12.50;49.73
23473;BME280;11909;52.516;13.564;2023-03-18T10:04:14;100680.84;;;12.67;49.33
23473;BME280;11909;52.516;13.564;2023-03-18T10:06:44;100681.28;;;12.74;49.12
23473;BME280;11909;52.516;13.564;2023-03-18T10:09:19;100682.31;;;12.78;49.20
23473;BME280;11909;52.516;13.564;2023-03-18T10:11:51;100674.09;;;12.97;48.45
23473;BME280;11909;52.516;13.564;2023-03-18T10:14:31;100666.69;;;13.12;48.59
23473;BME280;11909;52.516;13.564;2023-03-18T10:17:08;100661.06;;;13.36;49.30
23473;BME280;11909;52.516;13.564;2023-03-18T10:19:42;100665.16;;;13.58;47.86
23473;BME280;11909;52.516;13.564;2023-03-18T10:22:21;100673.22;;;13.68;47.53
23473;BME280;11909;52.516;13.564;2023-03-18T10:25:00;100679.25;;;13.70;47.48
23473;BME280;11909;52.516;13.564;2023-03-18T10:27:40;100673.06;;;13.79;47.72
23473;BME280;11909;52.516;13.564;2023-03-18T10:30:26;100674.59;;;13.99;47.74
23473;BME280;11909;52.516;13.564;2023-03-18T10:33:02;100667.44;;;14.12;47.35
23473;BME280;11909;52.516;13.564;2023-03-18T10:35:36;100667.94;;;14.28;47.93
23473;BME280;11909;52.516;13.564;2023-03-18T10:38:16;100667.66;;;14.43;46.66
23473;BME280;11909;52.516;13.564;2023-03-18T10:40:46;100670.50;;;14.52;46.44
23473;BME280;11909;52.516;13.564;2023-03-18T10:43:17;100666.22;;;14.46;46.46
23473;BME280;11909;52.516;13.564;2023-03-18T10:45:48;100654.03;;;14.47;47.99
23473;BME280;11909;52.516;13.564;2023-03-18T10:48:19;100661.91;;;14.54;48.08
23473;BME280;11909;52.516;13.564;2023-03-18T10:50:55;100661.28;;;14.57;47.36
23473;BME280;11909;52.516;13.564;2023-03-18T10:53:31;100665.44;;;14.68;47.60
23473;BME280;11909;52.516;13.564;2023-03-18T10:56:06;100664.66;;;14.82;46.89
23473;BME280;11909;52.516;13.564;2023-03-18T10:58:34;100664.81;;;14.85;47.06
23473;BME280;11909;52.516;13.564;2023-03-18T11:01:03;100656.66;;;14.80;47.59
23473;BME280;11909;52.516;13.564;2023-03-18T11:03:34;100666.34;;;14.91;46.87
23473;BME280;11909;52.516;13.564;2023-03-18T11:06:04;100671.25;;;14.95;47.15
23473;BME280;11909;52.516;13.564;2023-03-18T11:08:38;100666.59;;;15.04;46.85
23473;BME280;11909;52.516;13.564;2023-03-18T11:11:21;100670.84;;;15.24;47.46
23473;BME280;11909;52.516;13.564;2023-03-18T11:13:51;100668.56;;;15.26;46.67
23473;BME280;11909;52.516;13.564;2023-03-18T11:16:22;100671.28;;;15.17;46.38
23473;BME280;11909;52.516;13.564;2023-03-18T11:18:51;100667.19;;;15.38;46.89
23473;BME280;11909;52.516;13.564;2023-03-18T11:21:20;100664.53;;;15.55;46.51
23473;BME280;11909;52.516;13.564;2023-03-18T11:23:52;100659.22;;;15.68;45.92
23473;BME280;11909;52.516;13.564;2023-03-18T11:26:46;100650.59;;;15.69;47.79
23473;BME280;11909;52.516;13.564;2023-03-18T11:29:20;100666.38;;;15.91;45.74
23473;BME280;11909;52.516;13.564;2023-03-18T11:31:51;100663.00;;;16.03;45.12
23473;BME280;11909;52.516;13.564;2023-03-18T11:34:20;100667.22;;;16.01;45.10
23473;BME280;11909;52.516;13.564;2023-03-18T11:36:56;100661.28;;;15.85;45.89
23473;BME280;11909;52.516;13.564;2023-03-18T11:39:28;100647.75;;;15.83;45.82
23473;BME280;11909;52.516;13.564;2023-03-18T11:41:58;100653.03;;;15.94;46.34
23473;BME280;11909;52.516;13.564;2023-03-18T11:44:30;100655.63;;;15.90;46.60
23473;BME280;11909;52.516;13.564;2023-03-18T11:47:02;100660.22;;;15.95;46.58
23473;BME280;11909;52.516;13.564;2023-03-18T11:49:31;100656.88;;;15.84;47.14
23473;BME280;11909;52.516;13.564;2023-03-18T11:52:19;100662.06;;;15.85;46.81
23473;BME280;11909;52.516;13.564;2023-03-18T11:55:12;100662.84;;;15.77;47.39
23473;BME280;11909;52.516;13.564;2023-03-18T11:57:57;100665.78;;;15.72;47.19
23473;BME280;11909;52.516;13.564;2023-03-18T12:00:31;100668.47;;;15.63;47.63
23473;BME280;11909;52.516;13.564;2023-03-18T12:03:31;100659.53;;;15.66;47.88
23473;BME280;11909;52.516;13.564;2023-03-18T12:06:14;100662.13;;;15.62;47.63
23473;BME280;11909;52.516;13.564;2023-03-18T12:08:50;100666.66;;;15.58;48.27
23473;BME280;11909;52.516;13.564;2023-03-18T12:11:30;100658.34;;;15.58;48.55
23473;BME280;11909;52.516;13.564;2023-03-18T12:14:05;100661.22;;;15.76;48.21
23473;BME280;11909;52.516;13.564;2023-03-18T12:16:44;100655.00;;;15.70;48.50
23473;BME280;11909;52.516;13.564;2023-03-18T12:19:25;100661.53;;;15.74;48.80
23473;BME280;11909;52.516;13.564;2023-03-18T12:22:12;100657.50;;;15.81;48.72
23473;BME280;11909;52.516;13.564;2023-03-18T12:24:51;100665.66;;;15.86;49.21
23473;BME280;11909;52.516;13.564;2023-03-18T12:27:31;100650.38;;;15.88;49.70
23473;BME280;11909;52.516;13.564;2023-03-18T12:30:26;100650.38;;;15.88;51.34
23473;BME280;11909;52.516;13.564;2023-03-18T12:33:04;100645.88;;;16.01;49.94
23473;BME280;11909;52.516;13.564;2023-03-18T12:35:48;100647.03;;;16.00;50.57
23473;BME280;11909;52.516;13.564;2023-03-18T12:41:20;100653.50;;;16.45;50.03
23473;BME280;11909;52.516;13.564;2023-03-18T12:44:02;100658.25;;;16.44;49.77
23473;BME280;11909;52.516;13.564;2023-03-18T12:46:38;100652.34;;;16.37;50.25
23473;BME280;11909;52.516;13.564;2023-03-18T12:49:11;100650.91;;;16.48;49.87
23473;BME280;11909;52.516;13.564;2023-03-18T12:51:44;100651.72;;;16.58;49.56
23473;BME280;11909;52.516;13.564;2023-03-18T12:54:19;100650.72;;;16.45;50.71
23473;BME280;11909;52.516;13.564;2023-03-18T12:56:52;100642.63;;;16.66;50.58
23473;BME280;11909;52.516;13.564;2023-03-18T12:59:26;100646.56;;;16.74;50.32
23473;BME280;11909;52.516;13.564;2023-03-18T13:02:13;100647.69;;;16.73;50.28
23473;BME280;11909;52.516;13.564;2023-03-18T13:04:52;100639.38;;;16.82;49.63
23473;BME280;11909;52.516;13.564;2023-03-18T13:07:24;100636.59;;;16.90;50.02
23473;BME280;11909;52.516;13.564;2023-03-18T13:09:56;100644.28;;;17.02;49.92